sensor_id;sensor_type;location;lat;lon;timestamp;P1;durP1;ratioP1;P2;durP2;ratioP2
35745;SDS011;21870;42.812;74.628;2023-04-25T00:00:00;10.52;;;4.95;;
35745;SDS011;21870;42.812;74.628;2023-04-25T00:02:26;8.38;;;4.78;;
35745;SDS011;21870;42.812;74.628;2023-04-25T00:04:53;10.77;;;5.05;;
35745;SDS011;21870;42.812;74.628;2023-04-25T00:07:24;8.15;;;4.78;;
35745;SDS011;21870;42.812;74.628;2023-04-25T00:09:50;31.48;;;6.95;;
35745;SDS011;21870;42.812;74.628;2023-04-25T00:12:16;31.63;;;7.65;;
35745;SDS011;21870;42.812;74.628;2023-04-25T00:14:43;9.10;;;4.75;;
35745;SDS011;21870;42.812;74.628;2023-04-25T00:17:11;6.45;;;4.43;;
35745;SDS011;21870;42.812;74.628;2023-04-25T00:19:37;7.78;;;4.15;;
35745;SDS011;21870;42.812;74.628;2023-04-25T00:22:03;10.00;;;4.28;;
35745;SDS011;21870;42.812;74.628;2023-04-25T00:24:30;9.88;;;3.72;;
35745;SDS011;21870;42.812;74.628;2023-04-25T00:26:56;8.40;;;3.40;;
35745;SDS011;21870;42.812;74.628;2023-04-25T00:29:22;8.98;;;3.38;;
35745;SDS011;21870;42.812;74.628;2023-04-25T00:31:48;5.95;;;3.33;;
35745;SDS011;21870;42.812;74.628;2023-04-25T00:34:14;15.98;;;8.27;;
35745;SDS011;21870;42.812;74.628;2023-04-25T00:36:40;8.52;;;4.88;;
35745;SDS011;21870;42.812;74.628;2023-04-25T00:39:07;12.30;;;3.95;;
35745;SDS011;21870;42.812;74.628;2023-04-25T00:41:33;4.93;;;3.10;;
35745;SDS011;21870;42.812;74.628;2023-04-25T00:44:00;6.22;;;2.95;;
35745;SDS011;21870;42.812;74.628;2023-04-25T00:46:28;10.80;;;3.03;;
35745;SDS011;21870;42.812;74.628;2023-04-25T00:48:54;7.78;;;2.95;;
35745;SDS011;21870;42.812;74.628;2023-04-25T00:51:20;6.30;;;3.13;;
35745;SDS011;21870;42.812;74.628;2023-04-25T00:53:47;9.48;;;3.67;;
35745;SDS011;21870;42.812;74.628;2023-04-25T00:56:15;11.90;;;3.45;;
35745;SDS011;21870;42.812;74.628;2023-04-25T00:58:41;8.48;;;3.53;;
35745;SDS011;21870;42.812;74.628;2023-04-25T01:01:08;8.70;;;3.53;;
35745;SDS011;21870;42.812;74.628;2023-04-25T01:03:37;7.55;;;2.88;;
35745;SDS011;21870;42.812;74.628;2023-04-25T01:06:07;9.02;;;3.50;;
35745;SDS011;21870;42.812;74.628;2023-04-25T01:08:34;5.95;;;2.83;;
35745;SDS011;21870;42.812;74.628;2023-04-25T01:11:01;6.32;;;2.65;;
35745;SDS011;21870;42.812;74.628;2023-04-25T01:13:27;9.10;;;3.35;;
35745;SDS011;21870;42.812;74.628;2023-04-25T01:15:53;6.15;;;3.75;;
35745;SDS011;21870;42.812;74.628;2023-04-25T01:18:20;7.40;;;4.95;;
35745;SDS011;21870;42.812;74.628;2023-04-25T01:20:46;4.15;;;2.60;;
35745;SDS011;21870;42.812;74.628;2023-04-25T01:23:14;8.23;;;3.47;;
35745;SDS011;21870;42.812;74.628;2023-04-25T01:25:40;9.73;;;3.15;;
35745;SDS011;21870;42.812;74.628;2023-04-25T01:28:06;5.20;;;3.00;;
35745;SDS011;21870;42.812;74.628;2023-04-25T01:30:32;4.53;;;2.90;;
35745;SDS011;21870;42.812;74.628;2023-04-25T01:33:00;7.60;;;2.90;;
35745;SDS011;21870;42.812;74.628;2023-04-25T01:35:26;9.93;;;4.22;;
35745;SDS011;21870;42.812;74.628;2023-04-25T01:37:52;7.38;;;3.90;;
35745;SDS011;21870;42.812;74.628;2023-04-25T01:40:18;3.90;;;3.05;;
35745;SDS011;21870;42.812;74.628;2023-04-25T01:42:47;8.52;;;3.78;;
35745;SDS011;21870;42.812;74.628;2023-04-25T01:45:13;8.13;;;3.30;;
35745;SDS011;21870;42.812;74.628;2023-04-25T01:47:40;6.07;;;3.30;;
35745;SDS011;21870;42.812;74.628;2023-04-25T01:50:08;6.07;;;3.47;;
35745;SDS011;21870;42.812;74.628;2023-04-25T01:52:36;6.93;;;2.80;;
35745;SDS011;21870;42.812;74.628;2023-04-25T01:55:02;4.03;;;3.25;;
35745;SDS011;21870;42.812;74.628;2023-04-25T01:57:29;4.60;;;2.33;;
35745;SDS011;21870;42.812;74.628;2023-04-25T01:59:59;7.60;;;2.90;;
35745;SDS011;21870;42.812;74.628;2023-04-25T02:02:27;5.47;;;2.88;;
35745;SDS011;21870;42.812;74.628;2023-04-25T02:04:53;5.97;;;2.60;;
35745;SDS011;21870;42.812;74.628;2023-04-25T02:07:20;6.50;;;2.20;;
35745;SDS011;21870;42.812;74.628;2023-04-25T02:09:46;7.13;;;2.97;;
35745;SDS011;21870;42.812;74.628;2023-04-25T02:12:12;4.60;;;3.03;;
35745;SDS011;21870;42.812;74.628;2023-04-25T02:14:38;4.70;;;2.35;;
35745;SDS011;21870;42.812;74.628;2023-04-25T02:17:05;3.22;;;2.88;;
35745;SDS011;21870;42.812;74.628;2023-04-25T02:19:31;3.25;;;2.22;;
35745;SDS011;21870;42.812;74.628;2023-04-25T02:21:57;4.28;;;2.35;;
35745;SDS011;21870;42.812;74.628;2023-04-25T02:24:23;6.43;;;2.70;;
35745;SDS011;21870;42.812;74.628;2023-04-25T02:26:49;5.25;;;2.10;;
35745;SDS011;21870;42.812;74.628;2023-04-25T02:29:15;5.13;;;2.17;;
35745;SDS011;21870;42.812;74.628;2023-04-25T02:31:42;7.13;;;2.38;;
35745;SDS011;21870;42.812;74.628;2023-04-25T02:34:08;4.93;;;2.40;;
35745;SDS011;21870;42.812;74.628;2023-04-25T02:36:34;4.72;;;2.30;;
35745;SDS011;21870;42.812;74.628;2023-04-25T02:39:00;11.25;;;3.40;;
35745;SDS011;21870;42.812;74.628;2023-04-25T02:41:28;3.95;;;2.08;;
35745;SDS011;21870;42.812;74.628;2023-04-25T02:43:54;4.72;;;2.33;;
35745;SDS011;21870;42.812;74.628;2023-04-25T02:46:20;4.43;;;2.58;;
35745;SDS011;21870;42.812;74.628;2023-04-25T02:48:46;3.22;;;2.83;;
35745;SDS011;21870;42.812;74.628;2023-04-25T02:51:13;5.38;;;2.97;;
35745;SDS011;21870;42.812;74.628;2023-04-25T02:53:41;5.60;;;3.03;;
35745;SDS011;21870;42.812;74.628;2023-04-25T02:56:10;7.95;;;3.33;;
35745;SDS011;21870;42.812;74.628;2023-04-25T02:58:36;10.02;;;3.22;;
35745;SDS011;21870;42.812;74.628;2023-04-25T03:01:02;8.35;;;3.28;;
35745;SDS011;21870;42.812;74.628;2023-04-25T03:03:28;13.35;;;3.13;;
35745;SDS011;21870;42.812;74.628;2023-04-25T03:05:57;8.70;;;3.05;;
35745;SDS011;21870;42.812;74.628;2023-04-25T03:08:23;8.50;;;2.95;;
35745;SDS011;21870;42.812;74.628;2023-04-25T03:10:50;8.23;;;2.83;;
35745;SDS011;21870;42.812;74.628;2023-04-25T03:13:17;8.02;;;2.30;;
35745;SDS011;21870;42.812;74.628;2023-04-25T03:15:44;7.57;;;2.70;;
35745;SDS011;21870;42.812;74.628;2023-04-25T03:18:10;5.25;;;2.17;;
35745;SDS011;21870;42.812;74.628;2023-04-25T03:20:36;7.72;;;2.85;;
35745;SDS011;21870;42.812;74.628;2023-04-25T03:23:02;17.90;;;5.70;;
35745;SDS011;21870;42.812;74.628;2023-04-25T03:25:28;17.98;;;6.65;;
35745;SDS011;21870;42.812;74.628;2023-04-25T03:27:54;15.48;;;7.13;;
35745;SDS011;21870;42.812;74.628;2023-04-25T03:30:20;13.77;;;6.88;;
35745;SDS011;21870;42.812;74.628;2023-04-25T03:32:46;11.32;;;5.63;;
35745;SDS011;21870;42.812;74.628;2023-04-25T03:35:12;13.07;;;4.82;;
35745;SDS011;21870;42.812;74.628;2023-04-25T03:37:41;9.23;;;4.30;;
35745;SDS011;21870;42.812;74.628;2023-04-25T03:40:10;15.57;;;4.43;;
35745;SDS011;21870;42.812;74.628;2023-04-25T03:42:37;12.25;;;5.43;;
35745;SDS011;21870;42.812;74.628;2023-04-25T03:45:03;19.98;;;6.53;;
35745;SDS011;21870;42.812;74.628;2023-04-25T03:47:29;11.85;;;6.20;;
35745;SDS011;21870;42.812;74.628;2023-04-25T03:49:56;11.40;;;6.57;;
35745;SDS011;21870;42.812;74.628;2023-04-25T03:52:22;18.23;;;6.80;;
35745;SDS011;21870;42.812;74.628;2023-04-25T03:54:48;13.45;;;6.72;;
35745;SDS011;21870;42.812;74.628;2023-04-25T03:57:14;9.77;;;6.00;;
35745;SDS011;21870;42.812;74.628;2023-04-25T03:59:40;16.38;;;6.45;;
35745;SDS011;21870;42.812;74.628;2023-04-25T04:02:06;15.52;;;6.07;;
35745;SDS011;21870;42.812;74.628;2023-04-25T04:04:32;11.57;;;5.18;;
35745;SDS011;21870;42.812;74.628;2023-04-25T04:06:58;14.63;;;6.88;;
35745;SDS011;21870;42.812;74.628;2023-04-25T04:09:25;33.85;;;9.10;;
35745;SDS011;21870;42.812;74.628;2023-04-25T04:11:51;26.52;;;8.88;;
35745;SDS011;21870;42.812;74.628;2023-04-25T04:14:17;14.98;;;8.15;;
35745;SDS011;21870;42.812;74.628;2023-04-25T04:16:43;24.70;;;7.88;;
35745;SDS011;21870;42.812;74.628;2023-04-25T04:19:09;15.15;;;6.25;;
35745;SDS011;21870;42.812;74.628;2023-04-25T04:21:36;12.52;;;5.10;;
35745;SDS011;21870;42.812;74.628;2023-04-25T04:24:02;17.85;;;5.70;;
35745;SDS011;21870;42.812;74.628;2023-04-25T04:26:28;19.25;;;4.55;;
35745;SDS011;21870;42.812;74.628;2023-04-25T04:28:57;8.60;;;3.45;;
35745;SDS011;21870;42.812;74.628;2023-04-25T04:31:24;8.07;;;2.80;;
35745;SDS011;21870;42.812;74.628;2023-04-25T04:33:50;7.22;;;2.38;;
35745;SDS011;21870;42.812;74.628;2023-04-25T04:36:17;6.00;;;2.22;;
35745;SDS011;21870;42.812;74.628;2023-04-25T04:38:47;6.75;;;2.63;;
35745;SDS011;21870;42.812;74.628;2023-04-25T04:41:13;8.18;;;2.15;;
35745;SDS011;21870;42.812;74.628;2023-04-25T04:43:39;8.60;;;2.20;;
35745;SDS011;21870;42.812;74.628;2023-04-25T04:46:05;6.57;;;1.90;;
35745;SDS011;21870;42.812;74.628;2023-04-25T04:48:31;10.50;;;3.75;;
35745;SDS011;21870;42.812;74.628;2023-04-25T04:50:59;3.22;;;1.98;;
35745;SDS011;21870;42.812;74.628;2023-04-25T04:53:25;3.92;;;2.00;;
35745;SDS011;21870;42.812;74.628;2023-04-25T04:55:52;13.50;;;2.78;;
35745;SDS011;21870;42.812;74.628;2023-04-25T04:58:18;4.70;;;1.80;;
35745;SDS011;21870;42.812;74.628;2023-04-25T05:00:44;6.55;;;1.92;;
35745;SDS011;21870;42.812;74.628;2023-04-25T05:03:11;6.72;;;2.17;;
35745;SDS011;21870;42.812;74.628;2023-04-25T05:05:38;8.32;;;2.42;;
35745;SDS011;21870;42.812;74.628;2023-04-25T05:08:05;9.52;;;2.45;;
35745;SDS011;21870;42.812;74.628;2023-04-25T05:10:31;8.38;;;1.98;;
35745;SDS011;21870;42.812;74.628;2023-04-25T05:12:57;12.13;;;2.42;;
35745;SDS011;21870;42.812;74.628;2023-04-25T05:15:24;10.40;;;2.08;;
35745;SDS011;21870;42.812;74.628;2023-04-25T05:17:50;5.50;;;1.90;;
35745;SDS011;21870;42.812;74.628;2023-04-25T05:20:16;6.22;;;2.30;;
35745;SDS011;21870;42.812;74.628;2023-04-25T05:22:44;10.43;;;3.72;;
35745;SDS011;21870;42.812;74.628;2023-04-25T05:25:10;5.22;;;1.58;;
35745;SDS011;21870;42.812;74.628;2023-04-25T05:27:36;8.73;;;2.30;;
35745;SDS011;21870;42.812;74.628;2023-04-25T05:30:03;5.90;;;2.50;;
35745;SDS011;21870;42.812;74.628;2023-04-25T05:32:30;7.03;;;2.83;;
35745;SDS011;21870;42.812;74.628;2023-04-25T05:34:56;8.60;;;2.67;;
35745;SDS011;21870;42.812;74.628;2023-04-25T05:37:22;9.50;;;2.63;;
35745;SDS011;21870;42.812;74.628;2023-04-25T05:39:48;10.32;;;2.28;;
35745;SDS011;21870;42.812;74.628;2023-04-25T05:42:14;6.50;;;2.20;;
35745;SDS011;21870;42.812;74.628;2023-04-25T05:44:40;8.13;;;2.47;;
35745;SDS011;21870;42.812;74.628;2023-04-25T05:47:06;10.77;;;2.42;;
35745;SDS011;21870;42.812;74.628;2023-04-25T05:49:33;5.50;;;2.38;;
35745;SDS011;21870;42.812;74.628;2023-04-25T05:51:59;7.47;;;2.53;;
35745;SDS011;21870;42.812;74.628;2023-04-25T05:54:26;12.27;;;2.58;;
35745;SDS011;21870;42.812;74.628;2023-04-25T05:56:52;6.65;;;2.50;;
35745;SDS011;21870;42.812;74.628;2023-04-25T05:59:18;10.13;;;2.92;;
35745;SDS011;21870;42.812;74.628;2023-04-25T06:01:44;8.68;;;2.70;;
35745;SDS011;21870;42.812;74.628;2023-04-25T06:04:11;9.48;;;2.70;;
35745;SDS011;21870;42.812;74.628;2023-04-25T06:06:37;7.45;;;2.63;;
35745;SDS011;21870;42.812;74.628;2023-04-25T06:09:03;10.52;;;2.72;;
35745;SDS011;21870;42.812;74.628;2023-04-25T06:11:29;6.63;;;2.35;;
35745;SDS011;21870;42.812;74.628;2023-04-25T06:13:56;8.35;;;2.63;;
35745;SDS011;21870;42.812;74.628;2023-04-25T06:16:22;9.13;;;2.90;;
35745;SDS011;21870;42.812;74.628;2023-04-25T06:18:49;13.30;;;3.53;;
35745;SDS011;21870;42.812;74.628;2023-04-25T06:21:15;9.45;;;3.10;;
35745;SDS011;21870;42.812;74.628;2023-04-25T06:23:41;8.30;;;3.08;;
35745;SDS011;21870;42.812;74.628;2023-04-25T06:26:08;6.85;;;2.80;;
35745;SDS011;21870;42.812;74.628;2023-04-25T06:28:34;6.50;;;2.78;;
35745;SDS011;21870;42.812;74.628;2023-04-25T06:31:00;5.70;;;2.60;;
35745;SDS011;21870;42.812;74.628;2023-04-25T06:33:26;9.95;;;3.17;;
35745;SDS011;21870;42.812;74.628;2023-04-25T06:35:52;8.63;;;2.55;;
35745;SDS011;21870;42.812;74.628;2023-04-25T06:38:18;6.55;;;3.47;;
35745;SDS011;21870;42.812;74.628;2023-04-25T06:40:44;7.50;;;3.42;;
35745;SDS011;21870;42.812;74.628;2023-04-25T06:43:10;12.15;;;3.53;;
35745;SDS011;21870;42.812;74.628;2023-04-25T06:45:39;8.40;;;3.45;;
35745;SDS011;21870;42.812;74.628;2023-04-25T06:48:05;10.68;;;3.35;;
35745;SDS011;21870;42.812;74.628;2023-04-25T06:50:32;9.88;;;3.92;;
35745;SDS011;21870;42.812;74.628;2023-04-25T06:52:58;6.95;;;3.00;;
35745;SDS011;21870;42.812;74.628;2023-04-25T06:55:26;13.50;;;4.55;;
35745;SDS011;21870;42.812;74.628;2023-04-25T06:57:52;22.80;;;5.00;;
35745;SDS011;21870;42.812;74.628;2023-04-25T07:00:18;9.48;;;3.80;;
35745;SDS011;21870;42.812;74.628;2023-04-25T07:02:45;8.38;;;3.00;;
35745;SDS011;21870;42.812;74.628;2023-04-25T07:05:11;8.73;;;3.20;;
35745;SDS011;21870;42.812;74.628;2023-04-25T07:07:37;6.43;;;3.15;;
35745;SDS011;21870;42.812;74.628;2023-04-25T07:10:03;10.93;;;3.75;;
35745;SDS011;21870;42.812;74.628;2023-04-25T07:12:30;10.05;;;3.97;;
35745;SDS011;21870;42.812;74.628;2023-04-25T07:14:56;12.43;;;3.83;;
35745;SDS011;21870;42.812;74.628;2023-04-25T07:17:22;14.30;;;4.22;;
35745;SDS011;21870;42.812;74.628;2023-04-25T07:19:48;10.10;;;3.60;;
35745;SDS011;21870;42.812;74.628;2023-04-25T07:22:14;12.02;;;4.18;;
35745;SDS011;21870;42.812;74.628;2023-04-25T07:24:44;9.38;;;2.88;;
35745;SDS011;21870;42.812;74.628;2023-04-25T07:27:13;8.43;;;2.60;;
35745;SDS011;21870;42.812;74.628;2023-04-25T07:29:40;9.55;;;3.10;;
35745;SDS011;21870;42.812;74.628;2023-04-25T07:32:07;8.80;;;3.00;;
35745;SDS011;21870;42.812;74.628;2023-04-25T07:34:33;7.72;;;4.10;;
35745;SDS011;21870;42.812;74.628;2023-04-25T07:37:02;6.63;;;3.10;;
35745;SDS011;21870;42.812;74.628;2023-04-25T07:39:28;12.27;;;3.40;;
35745;SDS011;21870;42.812;74.628;2023-04-25T07:41:54;8.98;;;3.38;;
35745;SDS011;21870;42.812;74.628;2023-04-25T07:44:21;5.80;;;2.50;;
35745;SDS011;21870;42.812;74.628;2023-04-25T07:46:47;8.70;;;3.05;;
35745;SDS011;21870;42.812;74.628;2023-04-25T07:49:13;9.77;;;2.80;;
35745;SDS011;21870;42.812;74.628;2023-04-25T07:51:40;13.45;;;3.63;;
35745;SDS011;21870;42.812;74.628;2023-04-25T07:54:08;10.43;;;3.05;;
35745;SDS011;21870;42.812;74.628;2023-04-25T07:56:35;6.93;;;2.70;;
35745;SDS011;21870;42.812;74.628;2023-04-25T07:59:01;6.55;;;2.67;;
35745;SDS011;21870;42.812;74.628;2023-04-25T08:01:27;8.95;;;2.72;;
35745;SDS011;21870;42.812;74.628;2023-04-25T08:03:53;13.65;;;3.17;;
35745;SDS011;21870;42.812;74.628;2023-04-25T08:06:20;11.18;;;2.95;;
35745;SDS011;21870;42.812;74.628;2023-04-25T08:08:46;14.05;;;3.42;;
35745;SDS011;21870;42.812;74.628;2023-04-25T08:11:12;17.65;;;3.88;;
35745;SDS011;21870;42.812;74.628;2023-04-25T08:13:38;8.98;;;3.63;;
35745;SDS011;21870;42.812;74.628;2023-04-25T08:16:04;13.05;;;2.85;;
35745;SDS011;21870;42.812;74.628;2023-04-25T08:18:30;10.57;;;3.63;;
35745;SDS011;21870;42.812;74.628;2023-04-25T08:20:56;9.13;;;3.05;;
35745;SDS011;21870;42.812;74.628;2023-04-25T08:23:22;12.95;;;3.42;;
35745;SDS011;21870;42.812;74.628;2023-04-25T08:25:48;11.77;;;3.50;;
35745;SDS011;21870;42.812;74.628;2023-04-25T08:28:14;11.13;;;3.60;;
35745;SDS011;21870;42.812;74.628;2023-04-25T08:30:41;9.23;;;2.83;;
35745;SDS011;21870;42.812;74.628;2023-04-25T08:33:07;11.10;;;2.78;;
35745;SDS011;21870;42.812;74.628;2023-04-25T08:35:33;12.23;;;4.50;;
35745;SDS011;21870;42.812;74.628;2023-04-25T08:37:59;9.65;;;4.22;;
35745;SDS011;21870;42.812;74.628;2023-04-25T08:40:27;7.55;;;3.22;;
35745;SDS011;21870;42.812;74.628;2023-04-25T08:42:59;8.65;;;4.05;;
35745;SDS011;21870;42.812;74.628;2023-04-25T08:45:28;10.23;;;3.35;;
35745;SDS011;21870;42.812;74.628;2023-04-25T08:47:58;11.82;;;3.50;;
35745;SDS011;21870;42.812;74.628;2023-04-25T08:50:25;11.18;;;3.63;;
35745;SDS011;21870;42.812;74.628;2023-04-25T08:52:52;9.02;;;2.78;;
35745;SDS011;21870;42.812;74.628;2023-04-25T08:55:21;6.13;;;2.78;;
35745;SDS011;21870;42.812;74.628;2023-04-25T08:57:48;10.57;;;2.33;;
35745;SDS011;21870;42.812;74.628;2023-04-25T09:00:15;21.13;;;4.03;;
35745;SDS011;21870;42.812;74.628;2023-04-25T09:02:42;14.52;;;3.55;;
35745;SDS011;21870;42.812;74.628;2023-04-25T09:05:09;10.85;;;2.63;;
35745;SDS011;21870;42.812;74.628;2023-04-25T09:07:37;9.90;;;3.22;;
35745;SDS011;21870;42.812;74.628;2023-04-25T09:10:03;10.52;;;3.45;;
35745;SDS011;21870;42.812;74.628;2023-04-25T09:12:30;9.43;;;3.55;;
35745;SDS011;21870;42.812;74.628;2023-04-25T09:15:06;18.48;;;3.83;;
35745;SDS011;21870;42.812;74.628;2023-04-25T09:17:34;17.88;;;4.22;;
35745;SDS011;21870;42.812;74.628;2023-04-25T09:20:08;15.50;;;3.20;;
35745;SDS011;21870;42.812;74.628;2023-04-25T09:22:36;9.43;;;3.33;;
35745;SDS011;21870;42.812;74.628;2023-04-25T09:25:10;7.88;;;3.65;;
35745;SDS011;21870;42.812;74.628;2023-04-25T09:27:40;8.65;;;2.88;;
35745;SDS011;21870;42.812;74.628;2023-04-25T09:30:18;9.98;;;3.00;;
35745;SDS011;21870;42.812;74.628;2023-04-25T09:32:56;11.95;;;3.42;;
35745;SDS011;21870;42.812;74.628;2023-04-25T09:35:24;10.75;;;3.05;;
35745;SDS011;21870;42.812;74.628;2023-04-25T09:37:53;9.43;;;3.00;;
35745;SDS011;21870;42.812;74.628;2023-04-25T09:40:19;8.02;;;2.53;;
35745;SDS011;21870;42.812;74.628;2023-04-25T09:42:45;5.43;;;2.53;;
35745;SDS011;21870;42.812;74.628;2023-04-25T09:45:12;10.57;;;3.28;;
35745;SDS011;21870;42.812;74.628;2023-04-25T09:47:40;7.95;;;3.08;;
35745;SDS011;21870;42.812;74.628;2023-04-25T09:50:15;13.95;;;3.63;;
35745;SDS011;21870;42.812;74.628;2023-04-25T09:52:44;9.35;;;2.83;;
35745;SDS011;21870;42.812;74.628;2023-04-25T09:55:10;9.32;;;2.47;;
35745;SDS011;21870;42.812;74.628;2023-04-25T09:57:36;11.98;;;2.65;;
35745;SDS011;21870;42.812;74.628;2023-04-25T10:00:05;9.05;;;2.55;;
35745;SDS011;21870;42.812;74.628;2023-04-25T10:02:36;9.60;;;2.67;;
35745;SDS011;21870;42.812;74.628;2023-04-25T10:05:05;12.02;;;2.67;;
35745;SDS011;21870;42.812;74.628;2023-04-25T10:07:33;10.18;;;2.78;;
35745;SDS011;21870;42.812;74.628;2023-04-25T10:10:03;5.35;;;2.30;;
35745;SDS011;21870;42.812;74.628;2023-04-25T10:12:32;9.38;;;2.70;;
35745;SDS011;21870;42.812;74.628;2023-04-25T10:14:59;10.63;;;2.63;;
35745;SDS011;21870;42.812;74.628;2023-04-25T10:17:26;10.40;;;2.33;;
35745;SDS011;21870;42.812;74.628;2023-04-25T10:19:53;6.47;;;2.72;;
35745;SDS011;21870;42.812;74.628;2023-04-25T10:22:23;10.73;;;3.10;;
35745;SDS011;21870;42.812;74.628;2023-04-25T10:24:51;11.15;;;3.38;;
35745;SDS011;21870;42.812;74.628;2023-04-25T10:27:18;11.23;;;2.45;;
35745;SDS011;21870;42.812;74.628;2023-04-25T10:29:44;8.20;;;2.53;;
35745;SDS011;21870;42.812;74.628;2023-04-25T10:32:25;8.27;;;2.53;;
35745;SDS011;21870;42.812;74.628;2023-04-25T10:34:51;9.93;;;2.60;;
35745;SDS011;21870;42.812;74.628;2023-04-25T10:37:17;5.63;;;2.22;;
35745;SDS011;21870;42.812;74.628;2023-04-25T10:39:44;8.85;;;3.20;;
35745;SDS011;21870;42.812;74.628;2023-04-25T10:42:11;7.75;;;2.78;;
35745;SDS011;21870;42.812;74.628;2023-04-25T10:44:38;7.97;;;2.53;;
35745;SDS011;21870;42.812;74.628;2023-04-25T10:47:06;6.43;;;2.45;;
35745;SDS011;21870;42.812;74.628;2023-04-25T10:49:33;17.45;;;3.38;;
35745;SDS011;21870;42.812;74.628;2023-04-25T10:54:54;6.90;;;2.45;;
35745;SDS011;21870;42.812;74.628;2023-04-25T10:57:28;8.38;;;2.90;;
35745;SDS011;21870;42.812;74.628;2023-04-25T11:00:09;5.80;;;3.03;;
35745;SDS011;21870;42.812;74.628;2023-04-25T11:02:42;5.63;;;2.45;;
35745;SDS011;21870;42.812;74.628;2023-04-25T11:08:01;6.85;;;3.45;;
35745;SDS011;21870;42.812;74.628;2023-04-25T11:10:31;9.55;;;3.13;;
35745;SDS011;21870;42.812;74.628;2023-04-25T11:13:00;8.35;;;2.60;;
35745;SDS011;21870;42.812;74.628;2023-04-25T11:15:26;11.85;;;2.65;;
35745;SDS011;21870;42.812;74.628;2023-04-25T11:17:53;8.73;;;2.78;;
35745;SDS011;21870;42.812;74.628;2023-04-25T11:20:20;7.47;;;2.42;;
35745;SDS011;21870;42.812;74.628;2023-04-25T11:22:47;9.18;;;2.90;;
35745;SDS011;21870;42.812;74.628;2023-04-25T11:25:14;8.15;;;2.65;;
35745;SDS011;21870;42.812;74.628;2023-04-25T11:30:21;5.80;;;2.28;;
35745;SDS011;21870;42.812;74.628;2023-04-25T11:32:48;10.68;;;2.70;;
35745;SDS011;21870;42.812;74.628;2023-04-25T11:35:15;8.30;;;2.90;;
35745;SDS011;21870;42.812;74.628;2023-04-25T11:37:42;7.22;;;2.97;;
35745;SDS011;21870;42.812;74.628;2023-04-25T11:40:08;11.18;;;3.70;;
35745;SDS011;21870;42.812;74.628;2023-04-25T11:42:37;5.47;;;2.28;;
35745;SDS011;21870;42.812;74.628;2023-04-25T11:45:04;7.20;;;2.53;;
35745;SDS011;21870;42.812;74.628;2023-04-25T11:47:31;7.93;;;2.72;;
35745;SDS011;21870;42.812;74.628;2023-04-25T11:49:59;6.78;;;2.40;;
35745;SDS011;21870;42.812;74.628;2023-04-25T11:52:38;6.85;;;3.05;;
35745;SDS011;21870;42.812;74.628;2023-04-25T11:55:06;14.05;;;4.18;;
35745;SDS011;21870;42.812;74.628;2023-04-25T11:57:34;10.48;;;3.63;;
35745;SDS011;21870;42.812;74.628;2023-04-25T12:02:37;5.10;;;1.90;;
35745;SDS011;21870;42.812;74.628;2023-04-25T12:05:06;9.77;;;2.42;;
35745;SDS011;21870;42.812;74.628;2023-04-25T12:07:34;5.35;;;2.75;;
35745;SDS011;21870;42.812;74.628;2023-04-25T12:10:11;7.25;;;3.22;;
35745;SDS011;21870;42.812;74.628;2023-04-25T12:12:41;10.20;;;2.83;;
35745;SDS011;21870;42.812;74.628;2023-04-25T12:15:08;14.48;;;3.50;;
35745;SDS011;21870;42.812;74.628;2023-04-25T12:17:36;16.60;;;4.80;;
35745;SDS011;21870;42.812;74.628;2023-04-25T12:20:07;13.32;;;3.75;;
35745;SDS011;21870;42.812;74.628;2023-04-25T12:22:34;10.68;;;3.67;;
35745;SDS011;21870;42.812;74.628;2023-04-25T12:25:01;8.77;;;3.05;;
35745;SDS011;21870;42.812;74.628;2023-04-25T12:27:30;6.43;;;2.38;;
35745;SDS011;21870;42.812;74.628;2023-04-25T12:29:59;6.25;;;1.95;;
35745;SDS011;21870;42.812;74.628;2023-04-25T12:32:26;6.03;;;2.28;;
35745;SDS011;21870;42.812;74.628;2023-04-25T12:34:52;7.32;;;3.08;;
35745;SDS011;21870;42.812;74.628;2023-04-25T12:37:18;8.82;;;3.58;;
35745;SDS011;21870;42.812;74.628;2023-04-25T12:39:45;10.73;;;3.72;;
35745;SDS011;21870;42.812;74.628;2023-04-25T12:42:11;13.98;;;3.80;;
35745;SDS011;21870;42.812;74.628;2023-04-25T12:44:37;19.63;;;5.03;;
35745;SDS011;21870;42.812;74.628;2023-04-25T12:47:03;12.27;;;4.20;;
35745;SDS011;21870;42.812;74.628;2023-04-25T12:49:30;17.88;;;4.95;;
35745;SDS011;21870;42.812;74.628;2023-04-25T12:51:57;10.88;;;5.00;;
35745;SDS011;21870;42.812;74.628;2023-04-25T12:54:23;14.68;;;4.90;;
35745;SDS011;21870;42.812;74.628;2023-04-25T12:56:50;12.40;;;4.90;;
35745;SDS011;21870;42.812;74.628;2023-04-25T12:59:17;13.13;;;3.95;;
35745;SDS011;21870;42.812;74.628;2023-04-25T13:01:43;13.52;;;4.43;;
35745;SDS011;21870;42.812;74.628;2023-04-25T13:04:10;12.48;;;4.43;;
35745;SDS011;21870;42.812;74.628;2023-04-25T13:06:36;16.08;;;5.72;;
35745;SDS011;21870;42.812;74.628;2023-04-25T13:09:02;9.85;;;4.70;;
35745;SDS011;21870;42.812;74.628;2023-04-25T13:11:29;32.75;;;6.38;;
35745;SDS011;21870;42.812;74.628;2023-04-25T13:13:56;25.02;;;5.00;;
35745;SDS011;21870;42.812;74.628;2023-04-25T13:16:22;23.15;;;4.50;;
35745;SDS011;21870;42.812;74.628;2023-04-25T13:18:48;16.88;;;4.28;;
35745;SDS011;21870;42.812;74.628;2023-04-25T13:21:14;12.70;;;3.90;;
35745;SDS011;21870;42.812;74.628;2023-04-25T13:23:40;17.63;;;3.90;;
35745;SDS011;21870;42.812;74.628;2023-04-25T13:26:11;15.80;;;4.22;;
35745;SDS011;21870;42.812;74.628;2023-04-25T13:28:37;10.88;;;3.92;;
35745;SDS011;21870;42.812;74.628;2023-04-25T13:31:05;18.92;;;5.95;;
35745;SDS011;21870;42.812;74.628;2023-04-25T13:33:31;13.05;;;5.15;;
35745;SDS011;21870;42.812;74.628;2023-04-25T13:35:57;18.63;;;6.18;;
35745;SDS011;21870;42.812;74.628;2023-04-25T13:38:24;11.18;;;4.00;;
35745;SDS011;21870;42.812;74.628;2023-04-25T13:40:50;16.42;;;4.65;;
35745;SDS011;21870;42.812;74.628;2023-04-25T13:43:20;15.63;;;4.47;;
35745;SDS011;21870;42.812;74.628;2023-04-25T13:45:47;12.27;;;5.25;;
35745;SDS011;21870;42.812;74.628;2023-04-25T13:48:17;10.93;;;5.47;;
35745;SDS011;21870;42.812;74.628;2023-04-25T13:50:44;10.70;;;5.20;;
35745;SDS011;21870;42.812;74.628;2023-04-25T13:53:10;14.15;;;6.30;;
35745;SDS011;21870;42.812;74.628;2023-04-25T13:55:37;14.90;;;6.43;;
35745;SDS011;21870;42.812;74.628;2023-04-25T13:58:04;14.88;;;5.47;;
35745;SDS011;21870;42.812;74.628;2023-04-25T14:00:33;17.27;;;6.50;;
35745;SDS011;21870;42.812;74.628;2023-04-25T14:03:02;17.73;;;6.40;;
35745;SDS011;21870;42.812;74.628;2023-04-25T14:05:30;15.25;;;6.25;;
35745;SDS011;21870;42.812;74.628;2023-04-25T14:07:56;20.42;;;7.32;;
35745;SDS011;21870;42.812;74.628;2023-04-25T14:10:22;15.10;;;7.80;;
35745;SDS011;21870;42.812;74.628;2023-04-25T14:12:48;26.55;;;9.63;;
35745;SDS011;21870;42.812;74.628;2023-04-25T14:15:14;33.38;;;11.52;;
35745;SDS011;21870;42.812;74.628;2023-04-25T14:17:40;31.38;;;12.48;;
35745;SDS011;21870;42.812;74.628;2023-04-25T14:20:08;25.75;;;10.77;;
35745;SDS011;21870;42.812;74.628;2023-04-25T14:22:35;19.20;;;6.78;;
35745;SDS011;21870;42.812;74.628;2023-04-25T14:25:02;19.77;;;6.07;;
35745;SDS011;21870;42.812;74.628;2023-04-25T14:27:28;19.50;;;5.82;;
35745;SDS011;21870;42.812;74.628;2023-04-25T14:29:55;15.90;;;6.10;;
35745;SDS011;21870;42.812;74.628;2023-04-25T14:32:21;21.98;;;6.65;;
35745;SDS011;21870;42.812;74.628;2023-04-25T14:34:47;19.92;;;6.35;;
35745;SDS011;21870;42.812;74.628;2023-04-25T14:37:14;18.20;;;5.82;;